Terminal Aerodrome Forecast
Issued by NWS Charleston, SC

Home | Current Version | Previous Version | Text Only | Print | Product List | Glossary On
Versions: 1 2 3 4 5 6 7 8 9 10 11 12 13 14 15 16 17 18 19
732
FTUS42 KCHS 250102 AAB
TAFCHS
TAF AMD
KCHS 250102Z 2501/2524 21008KT P6SM VCTS SCT020CB SCT035 BKN050
      TEMPO 2501/2502 5SM -TSRA BR SCT010 BKN025CB
     FM250300 22006KT P6SM SCT025 BKN060
     FM250900 25004KT P6SM SCT015 BKN030
     FM251500 23008KT P6SM VCTS SCT030CB BKN060=

USA.gov is the U.S. government's official web portal to all federal, state and local government web resources and services.